sensor_id;sensor_type;location;lat;lon;timestamp;temperature;humidity
18648;DHT22;9453;50.294;18.644;2022-12-18T05:00:52;-2.20;99.90
18648;DHT22;9453;50.294;18.644;2022-12-18T05:03:19;-2.20;99.90
18648;DHT22;9453;50.294;18.644;2022-12-18T05:05:49;-2.20;99.90
18648;DHT22;9453;50.294;18.644;2022-12-18T05:08:16;-2.40;99.90
18648;DHT22;9453;50.294;18.644;2022-12-18T05:10:43;-2.30;99.90
18648;DHT22;9453;50.294;18.644;2022-12-18T05:13:10;-2.30;99.90
18648;DHT22;9453;50.294;18.644;2022-12-18T05:15:37;-2.50;99.90
18648;DHT22;9453;50.294;18.644;2022-12-18T05:18:05;-2.40;99.90
18648;DHT22;9453;50.294;18.644;2022-12-18T05:20:32;-2.30;99.90
18648;DHT22;9453;50.294;18.644;2022-12-18T05:22:59;-2.20;99.90
18648;DHT22;9453;50.294;18.644;2022-12-18T05:25:26;-2.10;99.90
18648;DHT22;9453;50.294;18.644;2022-12-18T05:27:53;-2.00;99.90
18648;DHT22;9453;50.294;18.644;2022-12-18T05:30:20;-2.10;99.90
18648;DHT22;9453;50.294;18.644;2022-12-18T05:32:48;-2.10;99.90
18648;DHT22;9453;50.294;18.644;2022-12-18T05:35:16;-2.20;99.90
18648;DHT22;9453;50.294;18.644;2022-12-18T05:37:43;-2.10;99.90
18648;DHT22;9453;50.294;18.644;2022-12-18T05:40:11;-2.00;99.90
18648;DHT22;9453;50.294;18.644;2022-12-18T05:42:38;-1.90;99.90
18648;DHT22;9453;50.294;18.644;2022-12-18T05:45:06;-1.90;99.90
18648;DHT22;9453;50.294;18.644;2022-12-18T05:47:33;-1.90;99.90
18648;DHT22;9453;50.294;18.644;2022-12-18T05:50:00;-2.00;99.90
18648;DHT22;9453;50.294;18.644;2022-12-18T05:52:28;-2.00;99.90
18648;DHT22;9453;50.294;18.644;2022-12-18T05:54:55;-2.00;99.90
18648;DHT22;9453;50.294;18.644;2022-12-18T05:57:22;-2.00;99.90
18648;DHT22;9453;50.294;18.644;2022-12-18T05:59:49;-1.90;99.90
18648;DHT22;9453;50.294;18.644;2022-12-18T06:02:16;-1.90;99.90
18648;DHT22;9453;50.294;18.644;2022-12-18T06:04:48;-1.90;99.90
18648;DHT22;9453;50.294;18.644;2022-12-18T06:07:15;-1.90;99.90
18648;DHT22;9453;50.294;18.644;2022-12-18T06:09:43;-1.90;99.90
18648;DHT22;9453;50.294;18.644;2022-12-18T06:12:10;-1.90;99.90
18648;DHT22;9453;50.294;18.644;2022-12-18T06:14:38;-1.90;99.90
18648;DHT22;9453;50.294;18.644;2022-12-18T06:17:05;-1.90;99.90
18648;DHT22;9453;50.294;18.644;2022-12-18T06:19:32;-1.90;99.90
18648;DHT22;9453;50.294;18.644;2022-12-18T06:21:58;-2.00;99.90
18648;DHT22;9453;50.294;18.644;2022-12-18T06:24:25;-1.90;99.90
18648;DHT22;9453;50.294;18.644;2022-12-18T06:26:54;-1.90;99.90
18648;DHT22;9453;50.294;18.644;2022-12-18T06:29:21;-1.90;99.90
18648;DHT22;9453;50.294;18.644;2022-12-18T06:31:47;-1.90;99.90
18648;DHT22;9453;50.294;18.644;2022-12-18T06:34:14;-2.10;99.90
18648;DHT22;9453;50.294;18.644;2022-12-18T06:36:41;-2.10;99.90
18648;DHT22;9453;50.294;18.644;2022-12-18T06:39:08;-2.30;99.90
18648;DHT22;9453;50.294;18.644;2022-12-18T06:41:35;-2.50;99.90
18648;DHT22;9453;50.294;18.644;2022-12-18T06:44:03;-2.40;99.90
18648;DHT22;9453;50.294;18.644;2022-12-18T06:46:31;-2.40;99.90
18648;DHT22;9453;50.294;18.644;2022-12-18T06:48:58;-2.50;99.90
18648;DHT22;9453;50.294;18.644;2022-12-18T06:51:25;-2.50;99.90
18648;DHT22;9453;50.294;18.644;2022-12-18T06:53:52;-2.30;99.90
18648;DHT22;9453;50.294;18.644;2022-12-18T06:56:19;-2.20;99.90
18648;DHT22;9453;50.294;18.644;2022-12-18T06:58:46;-2.50;99.90
18648;DHT22;9453;50.294;18.644;2022-12-18T07:01:15;-2.90;99.90
18648;DHT22;9453;50.294;18.644;2022-12-18T07:03:42;-2.80;99.90
18648;DHT22;9453;50.294;18.644;2022-12-18T07:06:14;-2.60;99.90
18648;DHT22;9453;50.294;18.644;2022-12-18T07:08:42;-2.40;99.90
18648;DHT22;9453;50.294;18.644;2022-12-18T07:11:09;-2.20;99.90
18648;DHT22;9453;50.294;18.644;2022-12-18T07:13:36;-2.20;99.90
18648;DHT22;9453;50.294;18.644;2022-12-18T07:16:05;-2.10;99.90
18648;DHT22;9453;50.294;18.644;2022-12-18T07:18:34;-2.10;99.90
18648;DHT22;9453;50.294;18.644;2022-12-18T07:21:03;-1.80;99.90
18648;DHT22;9453;50.294;18.644;2022-12-18T07:23:32;-2.50;99.90
18648;DHT22;9453;50.294;18.644;2022-12-18T07:26:01;-2.60;99.90
18648;DHT22;9453;50.294;18.644;2022-12-18T07:28:28;-2.70;99.90
18648;DHT22;9453;50.294;18.644;2022-12-18T07:30:55;-2.70;99.90
18648;DHT22;9453;50.294;18.644;2022-12-18T07:33:22;-2.60;99.90
18648;DHT22;9453;50.294;18.644;2022-12-18T07:35:50;-2.50;99.90
18648;DHT22;9453;50.294;18.644;2022-12-18T07:38:17;-2.20;99.90
18648;DHT22;9453;50.294;18.644;2022-12-18T07:40:44;-2.10;99.90
18648;DHT22;9453;50.294;18.644;2022-12-18T07:43:11;-1.90;99.90
18648;DHT22;9453;50.294;18.644;2022-12-18T07:45:38;-1.80;99.90
18648;DHT22;9453;50.294;18.644;2022-12-18T07:48:05;-1.80;99.90
18648;DHT22;9453;50.294;18.644;2022-12-18T07:50:33;-1.80;99.90
18648;DHT22;9453;50.294;18.644;2022-12-18T07:53:01;-1.80;99.90
18648;DHT22;9453;50.294;18.644;2022-12-18T07:55:30;-1.70;99.90
18648;DHT22;9453;50.294;18.644;2022-12-18T07:58:00;-1.70;99.90
18648;DHT22;9453;50.294;18.644;2022-12-18T08:00:27;-1.60;99.90
18648;DHT22;9453;50.294;18.644;2022-12-18T08:02:54;-1.60;99.90
18648;DHT22;9453;50.294;18.644;2022-12-18T08:05:21;-1.50;99.90
18648;DHT22;9453;50.294;18.644;2022-12-18T08:07:48;-1.50;99.90
18648;DHT22;9453;50.294;18.644;2022-12-18T08:10:16;-1.50;99.90
18648;DHT22;9453;50.294;18.644;2022-12-18T08:12:43;-1.40;99.90
18648;DHT22;9453;50.294;18.644;2022-12-18T08:15:11;-1.20;99.90
18648;DHT22;9453;50.294;18.644;2022-12-18T08:17:38;-1.30;99.90
18648;DHT22;9453;50.294;18.644;2022-12-18T08:20:05;-1.50;99.90
18648;DHT22;9453;50.294;18.644;2022-12-18T08:22:33;-1.50;99.90
18648;DHT22;9453;50.294;18.644;2022-12-18T08:25:01;-1.60;99.90
18648;DHT22;9453;50.294;18.644;2022-12-18T08:27:29;-1.70;99.90
18648;DHT22;9453;50.294;18.644;2022-12-18T08:29:56;-1.80;99.90
18648;DHT22;9453;50.294;18.644;2022-12-18T08:32:23;-1.80;99.90
18648;DHT22;9453;50.294;18.644;2022-12-18T08:34:50;-1.90;99.90
18648;DHT22;9453;50.294;18.644;2022-12-18T08:37:17;-1.90;99.90
18648;DHT22;9453;50.294;18.644;2022-12-18T08:39:45;-2.00;99.90
18648;DHT22;9453;50.294;18.644;2022-12-18T08:42:11;-2.00;99.90
18648;DHT22;9453;50.294;18.644;2022-12-18T08:44:57;-2.10;99.90
18648;DHT22;9453;50.294;18.644;2022-12-18T08:47:24;-1.90;99.90
18648;DHT22;9453;50.294;18.644;2022-12-18T08:49:52;-1.90;99.90
18648;DHT22;9453;50.294;18.644;2022-12-18T08:52:19;-1.90;99.90
18648;DHT22;9453;50.294;18.644;2022-12-18T08:54:45;-1.80;99.90
18648;DHT22;9453;50.294;18.644;2022-12-18T08:57:12;-1.90;99.90
18648;DHT22;9453;50.294;18.644;2022-12-18T08:59:39;-2.00;99.90
18648;DHT22;9453;50.294;18.644;2022-12-18T09:02:08;-2.00;99.90
18648;DHT22;9453;50.294;18.644;2022-12-18T09:04:35;-2.00;99.90
18648;DHT22;9453;50.294;18.644;2022-12-18T09:07:02;-1.90;99.90
18648;DHT22;9453;50.294;18.644;2022-12-18T09:09:29;-1.90;99.90
18648;DHT22;9453;50.294;18.644;2022-12-18T09:11:56;-2.00;99.90
18648;DHT22;9453;50.294;18.644;2022-12-18T09:14:23;-1.90;99.90
18648;DHT22;9453;50.294;18.644;2022-12-18T09:16:50;-2.00;99.90
18648;DHT22;9453;50.294;18.644;2022-12-18T09:19:20;-1.90;99.90
18648;DHT22;9453;50.294;18.644;2022-12-18T09:21:47;-1.90;99.90
18648;DHT22;9453;50.294;18.644;2022-12-18T09:24:15;-1.80;99.90
18648;DHT22;9453;50.294;18.644;2022-12-18T09:26:42;-1.80;99.90
18648;DHT22;9453;50.294;18.644;2022-12-18T09:29:09;-1.80;99.90
18648;DHT22;9453;50.294;18.644;2022-12-18T09:31:36;-1.80;99.90
18648;DHT22;9453;50.294;18.644;2022-12-18T09:34:04;-1.80;99.90
18648;DHT22;9453;50.294;18.644;2022-12-18T09:36:32;-1.90;99.90
18648;DHT22;9453;50.294;18.644;2022-12-18T09:38:59;-1.90;99.90
18648;DHT22;9453;50.294;18.644;2022-12-18T09:41:41;-1.80;99.90
18648;DHT22;9453;50.294;18.644;2022-12-18T09:44:23;-1.80;99.90
18648;DHT22;9453;50.294;18.644;2022-12-18T09:46:56;-2.10;99.90
18648;DHT22;9453;50.294;18.644;2022-12-18T09:49:28;-2.40;99.90
18648;DHT22;9453;50.294;18.644;2022-12-18T09:52:02;-2.60;99.90
18648;DHT22;9453;50.294;18.644;2022-12-18T09:54:33;-2.60;99.90
18648;DHT22;9453;50.294;18.644;2022-12-18T09:57:02;-2.60;99.90
18648;DHT22;9453;50.294;18.644;2022-12-18T09:59:33;-2.50;99.90
18648;DHT22;9453;50.294;18.644;2022-12-18T10:02:14;-2.30;99.90
18648;DHT22;9453;50.294;18.644;2022-12-18T10:04:41;-2.10;99.90
18648;DHT22;9453;50.294;18.644;2022-12-18T10:07:14;-1.90;99.90
18648;DHT22;9453;50.294;18.644;2022-12-18T10:09:48;-1.80;99.90
18648;DHT22;9453;50.294;18.644;2022-12-18T10:12:22;-1.70;99.90
18648;DHT22;9453;50.294;18.644;2022-12-18T10:14:55;-1.60;99.90
18648;DHT22;9453;50.294;18.644;2022-12-18T10:17:28;-1.60;99.90
18648;DHT22;9453;50.294;18.644;2022-12-18T10:20:00;-1.50;99.90
18648;DHT22;9453;50.294;18.644;2022-12-18T10:22:40;-1.50;99.90
18648;DHT22;9453;50.294;18.644;2022-12-18T10:25:18;-1.40;99.90
18648;DHT22;9453;50.294;18.644;2022-12-18T10:27:46;-1.40;99.90
18648;DHT22;9453;50.294;18.644;2022-12-18T10:30:16;-1.30;99.90
18648;DHT22;9453;50.294;18.644;2022-12-18T10:32:43;-1.30;99.90
18648;DHT22;9453;50.294;18.644;2022-12-18T10:35:18;-1.30;99.90
18648;DHT22;9453;50.294;18.644;2022-12-18T10:38:21;-1.30;99.90
18648;DHT22;9453;50.294;18.644;2022-12-18T10:40:50;-1.20;99.90
18648;DHT22;9453;50.294;18.644;2022-12-18T10:43:21;-1.20;99.90
18648;DHT22;9453;50.294;18.644;2022-12-18T10:46:04;-1.30;99.90
18648;DHT22;9453;50.294;18.644;2022-12-18T10:48:34;-1.20;99.90
18648;DHT22;9453;50.294;18.644;2022-12-18T10:51:02;-1.20;99.90
18648;DHT22;9453;50.294;18.644;2022-12-18T10:53:33;-1.20;99.90
18648;DHT22;9453;50.294;18.644;2022-12-18T10:56:03;-1.20;99.90
18648;DHT22;9453;50.294;18.644;2022-12-18T10:58:32;-1.20;99.90
18648;DHT22;9453;50.294;18.644;2022-12-18T11:01:05;-1.20;99.90
18648;DHT22;9453;50.294;18.644;2022-12-18T11:03:36;-1.20;99.90
18648;DHT22;9453;50.294;18.644;2022-12-18T11:06:06;-1.10;99.90
18648;DHT22;9453;50.294;18.644;2022-12-18T11:08:35;-1.10;99.90
18648;DHT22;9453;50.294;18.644;2022-12-18T11:11:06;-1.10;99.90
18648;DHT22;9453;50.294;18.644;2022-12-18T11:13:34;-1.10;99.90
18648;DHT22;9453;50.294;18.644;2022-12-18T11:16:01;-1.00;99.90
18648;DHT22;9453;50.294;18.644;2022-12-18T11:18:29;-1.00;99.90
18648;DHT22;9453;50.294;18.644;2022-12-18T11:21:00;-1.10;99.90
18648;DHT22;9453;50.294;18.644;2022-12-18T11:23:32;-1.00;99.90
18648;DHT22;9453;50.294;18.644;2022-12-18T11:26:02;-1.00;99.90
18648;DHT22;9453;50.294;18.644;2022-12-18T11:28:35;-0.90;99.90
18648;DHT22;9453;50.294;18.644;2022-12-18T11:31:22;-0.90;99.90
18648;DHT22;9453;50.294;18.644;2022-12-18T11:33:58;-1.10;99.90
18648;DHT22;9453;50.294;18.644;2022-12-18T11:36:31;-1.10;99.90
18648;DHT22;9453;50.294;18.644;2022-12-18T11:39:08;-1.10;99.90
18648;DHT22;9453;50.294;18.644;2022-12-18T11:41:43;-1.10;99.90
18648;DHT22;9453;50.294;18.644;2022-12-18T11:44:38;-1.10;99.90
18648;DHT22;9453;50.294;18.644;2022-12-18T11:47:13;-1.10;99.90
18648;DHT22;9453;50.294;18.644;2022-12-18T11:49:42;-0.90;99.90
18648;DHT22;9453;50.294;18.644;2022-12-18T11:52:16;-1.00;99.90
18648;DHT22;9453;50.294;18.644;2022-12-18T11:54:45;-1.10;99.90
18648;DHT22;9453;50.294;18.644;2022-12-18T11:57:24;-1.10;99.90
18648;DHT22;9453;50.294;18.644;2022-12-18T12:00:02;-1.20;99.90
18648;DHT22;9453;50.294;18.644;2022-12-18T12:02:48;-1.20;99.90
18648;DHT22;9453;50.294;18.644;2022-12-18T12:05:31;-1.20;99.90
18648;DHT22;9453;50.294;18.644;2022-12-18T12:08:10;-1.20;99.90
18648;DHT22;9453;50.294;18.644;2022-12-18T12:10:49;-1.20;99.90
18648;DHT22;9453;50.294;18.644;2022-12-18T12:13:30;-1.10;99.90
18648;DHT22;9453;50.294;18.644;2022-12-18T12:16:10;-1.10;99.90
18648;DHT22;9453;50.294;18.644;2022-12-18T12:18:51;-1.10;99.90
18648;DHT22;9453;50.294;18.644;2022-12-18T12:21:25;-1.10;99.90
18648;DHT22;9453;50.294;18.644;2022-12-18T12:24:01;-0.90;99.90
18648;DHT22;9453;50.294;18.644;2022-12-18T12:26:35;-1.10;99.90
18648;DHT22;9453;50.294;18.644;2022-12-18T12:32:11;-1.10;99.90
18648;DHT22;9453;50.294;18.644;2022-12-18T12:34:48;-1.20;99.90
18648;DHT22;9453;50.294;18.644;2022-12-18T12:37:26;-1.00;99.90
18648;DHT22;9453;50.294;18.644;2022-12-18T12:39:58;-1.20;99.90
18648;DHT22;9453;50.294;18.644;2022-12-18T12:42:32;-1.00;99.90
18648;DHT22;9453;50.294;18.644;2022-12-18T12:45:21;-1.10;99.90
18648;DHT22;9453;50.294;18.644;2022-12-18T12:47:51;-1.10;99.90
18648;DHT22;9453;50.294;18.644;2022-12-18T12:50:20;-1.10;99.90
18648;DHT22;9453;50.294;18.644;2022-12-18T12:52:51;-0.90;99.90
18648;DHT22;9453;50.294;18.644;2022-12-18T12:55:21;-1.10;99.90
18648;DHT22;9453;50.294;18.644;2022-12-18T12:57:55;-1.10;99.90
18648;DHT22;9453;50.294;18.644;2022-12-18T13:00:28;-1.10;99.90
18648;DHT22;9453;50.294;18.644;2022-12-18T13:03:07;-1.10;99.90
18648;DHT22;9453;50.294;18.644;2022-12-18T13:05:41;-1.20;99.90
18648;DHT22;9453;50.294;18.644;2022-12-18T13:08:12;-1.20;99.90
18648;DHT22;9453;50.294;18.644;2022-12-18T13:10:48;-1.20;99.90
18648;DHT22;9453;50.294;18.644;2022-12-18T13:13:15;-1.20;99.90
18648;DHT22;9453;50.294;18.644;2022-12-18T13:15:43;-1.20;99.90
18648;DHT22;9453;50.294;18.644;2022-12-18T13:18:15;-1.20;99.90
18648;DHT22;9453;50.294;18.644;2022-12-18T13:20:44;-1.20;99.90
18648;DHT22;9453;50.294;18.644;2022-12-18T13:23:30;-1.20;99.90
18648;DHT22;9453;50.294;18.644;2022-12-18T13:25:58;-1.20;99.90
18648;DHT22;9453;50.294;18.644;2022-12-18T13:28:50;-1.20;99.90
18648;DHT22;9453;50.294;18.644;2022-12-18T13:34:43;-1.30;99.90
18648;DHT22;9453;50.294;18.644;2022-12-18T13:37:41;-1.40;99.90
18648;DHT22;9453;50.294;18.644;2022-12-18T13:43:28;-1.50;99.90
18648;DHT22;9453;50.294;18.644;2022-12-18T13:48:50;-1.50;99.90
18648;DHT22;9453;50.294;18.644;2022-12-18T13:51:20;-1.60;99.90
18648;DHT22;9453;50.294;18.644;2022-12-18T13:53:50;-1.50;99.90
18648;DHT22;9453;50.294;18.644;2022-12-18T13:56:21;-1.50;99.90
18648;DHT22;9453;50.294;18.644;2022-12-18T13:59:14;-1.60;99.90
18648;DHT22;9453;50.294;18.644;2022-12-18T14:01:51;-1.80;99.90
18648;DHT22;9453;50.294;18.644;2022-12-18T14:04:22;-1.60;99.90
18648;DHT22;9453;50.294;18.644;2022-12-18T14:06:53;-1.80;99.90
18648;DHT22;9453;50.294;18.644;2022-12-18T14:09:24;-2.00;99.90
18648;DHT22;9453;50.294;18.644;2022-12-18T14:11:52;-2.10;99.90
18648;DHT22;9453;50.294;18.644;2022-12-18T14:14:42;-2.00;99.90
18648;DHT22;9453;50.294;18.644;2022-12-18T14:17:10;-2.10;99.90
18648;DHT22;9453;50.294;18.644;2022-12-18T14:19:42;-2.10;99.90
18648;DHT22;9453;50.294;18.644;2022-12-18T14:22:15;-2.10;99.90
18648;DHT22;9453;50.294;18.644;2022-12-18T14:24:43;-2.10;99.90
18648;DHT22;9453;50.294;18.644;2022-12-18T14:27:21;-2.10;99.90
18648;DHT22;9453;50.294;18.644;2022-12-18T14:29:48;-2.10;99.90
18648;DHT22;9453;50.294;18.644;2022-12-18T14:32:17;-2.20;99.90
18648;DHT22;9453;50.294;18.644;2022-12-18T14:34:45;-2.30;99.90
18648;DHT22;9453;50.294;18.644;2022-12-18T14:37:16;-2.30;99.90
18648;DHT22;9453;50.294;18.644;2022-12-18T14:39:57;-2.40;99.90
18648;DHT22;9453;50.294;18.644;2022-12-18T14:42:25;-2.40;99.90
18648;DHT22;9453;50.294;18.644;2022-12-18T14:47:54;-2.40;99.90
18648;DHT22;9453;50.294;18.644;2022-12-18T14:50:21;-2.50;99.90
18648;DHT22;9453;50.294;18.644;2022-12-18T14:52:49;-2.50;99.90
18648;DHT22;9453;50.294;18.644;2022-12-18T14:55:17;-2.50;99.90
18648;DHT22;9453;50.294;18.644;2022-12-18T14:57:45;-2.60;99.90
18648;DHT22;9453;50.294;18.644;2022-12-18T15:00:18;-2.80;99.90
18648;DHT22;9453;50.294;18.644;2022-12-18T15:02:46;-2.70;99.90
18648;DHT22;9453;50.294;18.644;2022-12-18T15:05:18;-2.80;99.90
18648;DHT22;9453;50.294;18.644;2022-12-18T15:07:47;-2.80;99.90
18648;DHT22;9453;50.294;18.644;2022-12-18T15:10:17;-3.00;99.90
18648;DHT22;9453;50.294;18.644;2022-12-18T15:12:47;-3.00;99.90
18648;DHT22;9453;50.294;18.644;2022-12-18T15:15:46;-3.10;99.90
18648;DHT22;9453;50.294;18.644;2022-12-18T15:18:15;-3.20;99.90
18648;DHT22;9453;50.294;18.644;2022-12-18T15:20:44;-3.30;99.90
18648;DHT22;9453;50.294;18.644;2022-12-18T15:23:16;-3.30;99.90
18648;DHT22;9453;50.294;18.644;2022-12-18T15:25:46;-3.30;99.90
18648;DHT22;9453;50.294;18.644;2022-12-18T15:28:21;-3.40;99.90
18648;DHT22;9453;50.294;18.644;2022-12-18T15:31:00;-3.40;99.90
18648;DHT22;9453;50.294;18.644;2022-12-18T15:33:31;-3.40;99.90
18648;DHT22;9453;50.294;18.644;2022-12-18T15:35:59;-3.40;99.90
18648;DHT22;9453;50.294;18.644;2022-12-18T15:38:26;-3.40;99.90
18648;DHT22;9453;50.294;18.644;2022-12-18T15:40:55;-3.40;99.90
18648;DHT22;9453;50.294;18.644;2022-12-18T15:43:23;-3.50;99.90
18648;DHT22;9453;50.294;18.644;2022-12-18T15:46:04;-3.50;99.90
18648;DHT22;9453;50.294;18.644;2022-12-18T15:48:33;-3.60;99.90
18648;DHT22;9453;50.294;18.644;2022-12-18T15:51:01;-3.60;99.90
18648;DHT22;9453;50.294;18.644;2022-12-18T15:53:32;-3.60;99.90
18648;DHT22;9453;50.294;18.644;2022-12-18T15:56:01;-3.60;99.90
18648;DHT22;9453;50.294;18.644;2022-12-18T15:58:45;-3.70;99.90
18648;DHT22;9453;50.294;18.644;2022-12-18T16:01:12;-3.70;99.90
18648;DHT22;9453;50.294;18.644;2022-12-18T16:03:39;-3.80;99.90
18648;DHT22;9453;50.294;18.644;2022-12-18T16:06:07;-3.80;99.90
18648;DHT22;9453;50.294;18.644;2022-12-18T16:08:35;-3.70;99.90
18648;DHT22;9453;50.294;18.644;2022-12-18T16:11:04;-3.90;99.90
18648;DHT22;9453;50.294;18.644;2022-12-18T16:13:31;-3.90;99.90
18648;DHT22;9453;50.294;18.644;2022-12-18T16:15:58;-4.00;99.90
18648;DHT22;9453;50.294;18.644;2022-12-18T16:18:25;-4.10;99.90
18648;DHT22;9453;50.294;18.644;2022-12-18T16:20:52;-4.10;99.90
18648;DHT22;9453;50.294;18.644;2022-12-18T16:23:19;-4.20;99.90
18648;DHT22;9453;50.294;18.644;2022-12-18T16:25:46;-4.20;99.90
18648;DHT22;9453;50.294;18.644;2022-12-18T16:28:14;-4.20;99.90
18648;DHT22;9453;50.294;18.644;2022-12-18T16:30:41;-4.30;99.90
18648;DHT22;9453;50.294;18.644;2022-12-18T16:33:09;-4.30;99.90
18648;DHT22;9453;50.294;18.644;2022-12-18T16:35:36;-4.30;99.90
18648;DHT22;9453;50.294;18.644;2022-12-18T16:38:03;-4.40;99.90
18648;DHT22;9453;50.294;18.644;2022-12-18T16:40:31;-4.40;99.90
18648;DHT22;9453;50.294;18.644;2022-12-18T16:42:58;-4.50;99.90
18648;DHT22;9453;50.294;18.644;2022-12-18T16:45:26;-4.50;99.90
18648;DHT22;9453;50.294;18.644;2022-12-18T16:47:58;-4.60;99.90
18648;DHT22;9453;50.294;18.644;2022-12-18T16:50:25;-4.60;99.90
18648;DHT22;9453;50.294;18.644;2022-12-18T16:52:52;-4.70;99.90
18648;DHT22;9453;50.294;18.644;2022-12-18T16:55:19;-4.70;99.90
18648;DHT22;9453;50.294;18.644;2022-12-18T16:57:46;-4.70;99.90
18648;DHT22;9453;50.294;18.644;2022-12-18T17:00:14;-4.80;99.90
18648;DHT22;9453;50.294;18.644;2022-12-18T17:02:44;-4.80;99.90
18648;DHT22;9453;50.294;18.644;2022-12-18T17:05:11;-4.80;99.90
18648;DHT22;9453;50.294;18.644;2022-12-18T17:07:38;-4.80;99.90
18648;DHT22;9453;50.294;18.644;2022-12-18T17:10:05;-4.80;99.90
18648;DHT22;9453;50.294;18.644;2022-12-18T17:12:32;-4.90;99.90
18648;DHT22;9453;50.294;18.644;2022-12-18T17:14:59;-5.00;99.90
18648;DHT22;9453;50.294;18.644;2022-12-18T17:17:26;-4.90;99.90
18648;DHT22;9453;50.294;18.644;2022-12-18T17:19:55;-4.90;99.90
18648;DHT22;9453;50.294;18.644;2022-12-18T17:22:22;-4.90;99.90
18648;DHT22;9453;50.294;18.644;2022-12-18T17:24:48;-5.00;99.90
18648;DHT22;9453;50.294;18.644;2022-12-18T17:27:15;-5.00;99.90
18648;DHT22;9453;50.294;18.644;2022-12-18T17:29:43;-5.00;99.90
18648;DHT22;9453;50.294;18.644;2022-12-18T17:32:10;-5.00;99.90
18648;DHT22;9453;50.294;18.644;2022-12-18T17:34:37;-5.00;99.90
18648;DHT22;9453;50.294;18.644;2022-12-18T17:37:06;-4.90;99.90
18648;DHT22;9453;50.294;18.644;2022-12-18T17:39:33;-4.90;99.90
18648;DHT22;9453;50.294;18.644;2022-12-18T17:42:00;-4.90;99.90
18648;DHT22;9453;50.294;18.644;2022-12-18T17:44:27;-5.00;99.90
18648;DHT22;9453;50.294;18.644;2022-12-18T17:46:54;-5.00;99.90
18648;DHT22;9453;50.294;18.644;2022-12-18T17:49:21;-5.00;99.90
18648;DHT22;9453;50.294;18.644;2022-12-18T17:51:48;-5.00;99.90
18648;DHT22;9453;50.294;18.644;2022-12-18T17:54:16;-5.00;99.90
18648;DHT22;9453;50.294;18.644;2022-12-18T17:56:43;-5.10;99.90
18648;DHT22;9453;50.294;18.644;2022-12-18T17:59:10;-5.10;99.90
18648;DHT22;9453;50.294;18.644;2022-12-18T18:01:37;-5.10;99.90
18648;DHT22;9453;50.294;18.644;2022-12-18T18:04:04;-5.10;99.90
18648;DHT22;9453;50.294;18.644;2022-12-18T18:06:31;-5.30;99.90
18648;DHT22;9453;50.294;18.644;2022-12-18T18:08:58;-5.50;99.90
18648;DHT22;9453;50.294;18.644;2022-12-18T18:11:26;-5.60;99.90
18648;DHT22;9453;50.294;18.644;2022-12-18T18:14:14;-5.50;99.90
18648;DHT22;9453;50.294;18.644;2022-12-18T18:16:44;-5.40;99.90
18648;DHT22;9453;50.294;18.644;2022-12-18T18:19:14;-5.40;99.90
18648;DHT22;9453;50.294;18.644;2022-12-18T18:21:42;-5.20;99.90
18648;DHT22;9453;50.294;18.644;2022-12-18T18:24:12;-5.20;99.90
18648;DHT22;9453;50.294;18.644;2022-12-18T18:26:41;-5.10;99.90
18648;DHT22;9453;50.294;18.644;2022-12-18T18:29:08;-5.20;99.90
18648;DHT22;9453;50.294;18.644;2022-12-18T18:31:38;-5.10;99.90
18648;DHT22;9453;50.294;18.644;2022-12-18T18:34:05;-5.10;99.90
18648;DHT22;9453;50.294;18.644;2022-12-18T18:36:32;-5.10;99.90
18648;DHT22;9453;50.294;18.644;2022-12-18T18:38:59;-5.10;99.90
18648;DHT22;9453;50.294;18.644;2022-12-18T18:41:26;-5.00;99.90
18648;DHT22;9453;50.294;18.644;2022-12-18T18:43:56;-5.00;99.90
18648;DHT22;9453;50.294;18.644;2022-12-18T18:46:24;-5.10;99.90
18648;DHT22;9453;50.294;18.644;2022-12-18T18:48:51;-5.10;99.90
18648;DHT22;9453;50.294;18.644;2022-12-18T18:51:19;-5.10;99.90
18648;DHT22;9453;50.294;18.644;2022-12-18T18:53:47;-5.20;99.90
18648;DHT22;9453;50.294;18.644;2022-12-18T18:56:16;-5.10;99.90
18648;DHT22;9453;50.294;18.644;2022-12-18T18:58:44;-5.20;99.90
18648;DHT22;9453;50.294;18.644;2022-12-18T19:01:14;-5.20;99.90
18648;DHT22;9453;50.294;18.644;2022-12-18T19:03:42;-5.20;99.90
18648;DHT22;9453;50.294;18.644;2022-12-18T19:06:13;-5.20;99.90
18648;DHT22;9453;50.294;18.644;2022-12-18T19:08:40;-5.10;99.90
18648;DHT22;9453;50.294;18.644;2022-12-18T19:11:08;-5.10;99.90
18648;DHT22;9453;50.294;18.644;2022-12-18T19:13:57;-5.00;99.90
18648;DHT22;9453;50.294;18.644;2022-12-18T19:16:25;-5.00;99.90
18648;DHT22;9453;50.294;18.644;2022-12-18T19:18:53;-5.00;99.90
18648;DHT22;9453;50.294;18.644;2022-12-18T19:21:21;-5.00;99.90
18648;DHT22;9453;50.294;18.644;2022-12-18T19:23:48;-5.00;99.90
18648;DHT22;9453;50.294;18.644;2022-12-18T19:26:16;-5.10;99.90
18648;DHT22;9453;50.294;18.644;2022-12-18T19:28:44;-5.10;99.90
18648;DHT22;9453;50.294;18.644;2022-12-18T19:31:13;-5.10;99.90
18648;DHT22;9453;50.294;18.644;2022-12-18T19:33:45;-5.00;99.90
18648;DHT22;9453;50.294;18.644;2022-12-18T19:36:15;-5.10;99.90
18648;DHT22;9453;50.294;18.644;2022-12-18T19:38:44;-5.10;99.90
18648;DHT22;9453;50.294;18.644;2022-12-18T19:41:11;-5.20;99.90
18648;DHT22;9453;50.294;18.644;2022-12-18T19:43:39;-5.20;99.90
18648;DHT22;9453;50.294;18.644;2022-12-18T19:46:08;-5.30;99.90
18648;DHT22;9453;50.294;18.644;2022-12-18T19:48:36;-5.40;99.90
18648;DHT22;9453;50.294;18.644;2022-12-18T19:51:06;-5.30;99.90
18648;DHT22;9453;50.294;18.644;2022-12-18T19:53:34;-5.30;99.90
18648;DHT22;9453;50.294;18.644;2022-12-18T19:56:04;-5.20;99.90
18648;DHT22;9453;50.294;18.644;2022-12-18T19:58:32;-5.20;99.90
18648;DHT22;9453;50.294;18.644;2022-12-18T20:00:59;-5.20;99.90
18648;DHT22;9453;50.294;18.644;2022-12-18T20:03:26;-5.30;99.90
18648;DHT22;9453;50.294;18.644;2022-12-18T20:05:53;-5.20;99.90
18648;DHT22;9453;50.294;18.644;2022-12-18T20:08:21;-5.20;99.90
18648;DHT22;9453;50.294;18.644;2022-12-18T20:10:48;-5.20;99.90
18648;DHT22;9453;50.294;18.644;2022-12-18T20:13:15;-5.10;99.90
18648;DHT22;9453;50.294;18.644;2022-12-18T20:15:43;-5.20;99.90
18648;DHT22;9453;50.294;18.644;2022-12-18T20:18:10;-5.30;99.90
18648;DHT22;9453;50.294;18.644;2022-12-18T20:20:37;-5.20;99.90
18648;DHT22;9453;50.294;18.644;2022-12-18T20:23:04;-5.20;99.90
18648;DHT22;9453;50.294;18.644;2022-12-18T20:25:32;-5.20;99.90
18648;DHT22;9453;50.294;18.644;2022-12-18T20:27:59;-5.20;99.90
18648;DHT22;9453;50.294;18.644;2022-12-18T20:30:26;-5.20;99.90
18648;DHT22;9453;50.294;18.644;2022-12-18T20:32:53;-5.30;99.90
18648;DHT22;9453;50.294;18.644;2022-12-18T20:35:20;-5.30;99.90
18648;DHT22;9453;50.294;18.644;2022-12-18T20:37:46;-5.30;99.90
18648;DHT22;9453;50.294;18.644;2022-12-18T20:40:13;-5.40;99.90
18648;DHT22;9453;50.294;18.644;2022-12-18T20:42:42;-5.30;99.90
18648;DHT22;9453;50.294;18.644;2022-12-18T20:45:09;-5.40;99.90
18648;DHT22;9453;50.294;18.644;2022-12-18T20:47:36;-5.40;99.90
18648;DHT22;9453;50.294;18.644;2022-12-18T20:50:03;-5.40;99.90
18648;DHT22;9453;50.294;18.644;2022-12-18T20:52:30;-5.40;99.90
18648;DHT22;9453;50.294;18.644;2022-12-18T20:54:57;-5.30;99.90
18648;DHT22;9453;50.294;18.644;2022-12-18T20:57:24;-5.40;99.90
18648;DHT22;9453;50.294;18.644;2022-12-18T20:59:53;-5.40;99.90
18648;DHT22;9453;50.294;18.644;2022-12-18T21:02:19;-5.40;99.90